Time;durP1;ratioP1;P1;durP2;ratioP2;P2;SDS_P1;SDS_P2;PMS_P1;PMS_P2;Temp;Humidity;BMP_temperature;BMP_pressure;BME280_temperature;BME280_humidity;BME280_pressure;Samples;Min_cycle;Max_cycle;Signal;HPM_P1;HPM_P2
2023/02/02 00:01:24;;;;;;;12.40;5.30;;;;;;;5.60;65.99;99478.48;108018;1257;72028;-80
2023/02/02 00:03:52;;;;;;;11.30;5.40;;;;;;;5.58;65.90;99478.69;108033;1257;73088;-81
2023/02/02 00:06:23;;;;;;;14.20;6.60;;;;;;;5.58;65.80;99481.08;108010;1259;59838;-81
2023/02/02 00:08:51;;;;;;;10.80;5.20;;;;;;;5.58;65.74;99482.87;108080;1257;60392;-80
2023/02/02 00:11:19;;;;;;;12.80;5.90;;;;;;;5.59;65.66;99482.98;107851;1257;73920;-79
2023/02/02 00:13:48;;;;;;;11.00;4.80;;;;;;;5.62;65.71;99484.88;107988;1254;72326;-79
2023/02/02 00:20:21;;;;;;;10.50;4.90;;;;;;;5.69;65.60;99480.27;107977;1254;62148;-79
2023/02/02 00:22:49;;;;;;;11.60;5.50;;;;;;;5.72;65.55;99482.09;108003;1257;59860;-80
2023/02/02 00:25:17;;;;;;;12.30;5.40;;;;;;;5.76;65.47;99479.97;108118;1255;72287;-80
2023/02/02 00:27:45;;;;;;;11.20;5.70;;;;;;;5.81;65.39;99480.13;108005;1255;73359;-80
2023/02/02 00:30:15;;;;;;;11.60;5.20;;;;;;;5.83;65.28;99479.14;108050;1257;73793;-82
2023/02/02 00:32:47;;;;;;;12.10;5.90;;;;;;;5.85;65.13;99476.75;107890;1256;62165;-80
2023/02/02 00:35:15;;;;;;;13.00;5.20;;;;;;;5.86;65.04;99474.71;108048;1257;59627;-80
2023/02/02 00:37:43;;;;;;;11.50;5.50;;;;;;;5.85;64.99;99473.46;107883;1254;74100;-80
2023/02/02 00:40:12;;;;;;;10.30;5.20;;;;;;;5.80;64.87;99471.36;108008;1256;71371;-80
2023/02/02 00:42:42;;;;;;;10.40;5.40;;;;;;;5.75;64.84;99468.41;107785;1257;72100;-80
2023/02/02 00:45:15;;;;;;;9.90;5.40;;;;;;;5.74;64.89;99466.39;108093;1255;62156;-79
2023/02/02 00:47:47;;;;;;;12.30;6.00;;;;;;;5.74;64.83;99469.04;108003;1259;61233;-79
2023/02/02 00:50:19;;;;;;;10.40;5.30;;;;;;;5.75;64.88;99464.32;108088;1254;73265;-79
2023/02/02 00:52:48;;;;;;;11.30;5.10;;;;;;;5.76;64.83;99463.27;108048;1257;73922;-81
2023/02/02 00:55:16;;;;;;;12.50;6.30;;;;;;;5.74;64.69;99463.63;107967;1258;72855;-80
2023/02/02 00:57:46;;;;;;;12.10;5.70;;;;;;;5.69;64.67;99463.33;108004;1257;60118;-79
2023/02/02 01:00:17;;;;;;;12.10;6.40;;;;;;;5.64;64.66;99462.59;107906;1257;61480;-81
2023/02/02 01:02:46;;;;;;;;;;;;;;;5.59;64.73;99457.24;108062;1257;71930;-79
2023/02/02 01:05:15;;;;;;;11.10;5.80;;;;;;;5.58;64.66;99455.80;108020;1257;71958;-80
2023/02/02 01:07:43;;;;;;;10.50;5.50;;;;;;;5.53;64.67;99457.39;108048;1258;73666;-80
2023/02/02 01:10:14;;;;;;;12.00;5.60;;;;;;;5.51;64.73;99459.48;108039;1257;62393;-80
2023/02/02 01:12:44;;;;;;;11.50;5.30;;;;;;;5.46;64.67;99457.76;108011;1259;61308;-79
2023/02/02 01:15:12;;;;;;;10.90;5.80;;;;;;;5.42;64.67;99459.51;107925;1257;73238;-81
2023/02/02 01:17:41;;;;;;;12.40;5.50;;;;;;;5.38;64.74;99462.44;108030;1257;71952;-80
2023/02/02 01:20:17;;;;;;;11.00;5.60;;;;;;;5.35;64.86;99462.67;107945;1257;71833;-80
2023/02/02 01:22:46;;;;;;;10.80;5.40;;;;;;;5.33;64.92;99458.38;107999;1254;61093;-81
2023/02/02 01:25:14;;;;;;;9.90;5.90;;;;;;;5.31;64.88;99456.65;108118;1256;59576;-80
2023/02/02 01:27:44;;;;;;;12.80;5.70;;;;;;;5.28;65.02;99461.17;108087;1255;72525;-79
2023/02/02 01:30:13;;;;;;;13.30;5.90;;;;;;;5.28;64.99;99456.62;108089;1257;72793;-80
2023/02/02 01:32:44;;;;;;;10.40;6.20;;;;;;;5.28;65.11;99459.01;107962;1257;73592;-80
2023/02/02 01:35:13;;;;;;;11.60;5.70;;;;;;;5.26;65.08;99464.38;107939;1257;60183;-80
2023/02/02 01:37:42;;;;;;;11.60;6.00;;;;;;;5.22;65.08;99464.55;108154;1254;59502;-79
2023/02/02 01:40:11;;;;;;;12.50;6.50;;;;;;;5.17;65.17;99463.17;108098;1256;73932;-78
2023/02/02 01:42:39;;;;;;;11.70;6.10;;;;;;;5.15;65.20;99460.18;108094;1254;73659;-81
2023/02/02 01:45:24;;;;;;;14.70;6.00;;;;;;;5.13;65.27;99457.66;108071;1254;72898;-82
2023/02/02 01:47:56;;;;;;;14.60;5.30;;;;;;;5.12;65.34;99457.02;108130;1254;62020;-80
2023/02/02 01:50:30;;;;;;;14.80;6.20;;;;;;;5.13;65.39;99463.23;108098;1257;59608;-81
2023/02/02 01:52:59;;;;;;;10.90;6.40;;;;;;;5.13;65.47;99459.77;108167;1255;72751;-82
2023/02/02 01:55:29;;;;;;;14.50;6.20;;;;;;;5.16;65.53;99462.27;108051;1254;74317;-81
2023/02/02 01:58:00;;;;;;;10.40;5.90;;;;;;;5.19;65.56;99462.71;108102;1254;70814;-81
2023/02/02 02:00:29;;;;;;;11.70;6.10;;;;;;;5.20;65.53;99459.88;108040;1255;60768;-80
2023/02/02 02:03:01;;;;;;;12.80;6.20;;;;;;;5.22;65.53;99460.89;108070;1254;59465;-80
2023/02/02 02:05:46;;;;;;;14.50;7.40;;;;;;;5.21;65.49;99462.63;108089;1259;74264;-81
2023/02/02 02:08:25;;;;;;;10.70;6.10;;;;;;;5.20;65.39;99457.91;108146;1259;72302;-80
2023/02/02 02:10:53;;;;;;;12.00;6.40;;;;;;;5.21;65.46;99457.98;108113;1259;72057;-80
2023/02/02 02:16:17;;;;;;;11.10;6.20;;;;;;;5.20;65.37;99458.98;107975;1260;61330;-79
2023/02/02 02:16:37;;;;;;;12.80;6.60;;;;;;;5.20;65.36;99461.20;108127;1256;59500;-79
2023/02/02 02:19:28;;;;;;;11.30;5.90;;;;;;;5.17;65.34;99461.53;108026;1254;72405;-82
2023/02/02 02:28:20;;;;;;;12.00;6.10;;;;;;;5.10;65.46;99457.54;108040;1255;60342;-81
2023/02/02 02:31:22;;;;;;;10.70;6.30;;;;;;;5.12;65.52;99458.40;108041;1254;60283;-81
2023/02/02 02:34:29;;;;;;;11.70;6.90;;;;;;;5.14;65.54;99460.19;108078;1257;72893;-81
2023/02/02 02:37:15;;;;;;;12.40;6.20;;;;;;;5.13;65.48;99460.43;108085;1259;71002;-81
2023/02/02 02:39:53;;;;;;;13.60;6.70;;;;;;;5.11;65.50;99462.48;108073;1259;71964;-79
2023/02/02 02:42:26;;;;;;;12.60;6.60;;;;;;;5.13;65.47;99461.59;108025;1254;61306;-80
2023/02/02 02:44:54;;;;;;;14.50;7.10;;;;;;;5.12;65.53;99463.02;107986;1259;61210;-80
2023/02/02 02:47:23;;;;;;;14.40;6.20;;;;;;;5.14;65.45;99469.97;108024;1259;74243;-80
2023/02/02 02:49:52;;;;;;;13.50;6.60;;;;;;;5.15;65.54;99470.98;107918;1254;72929;-80
2023/02/02 02:52:22;;;;;;;13.60;6.70;;;;;;;5.16;65.54;99469.10;108035;1256;70686;-81
2023/02/02 02:54:52;;;;;;;10.00;5.70;;;;;;;5.16;65.46;99469.13;108045;1254;61214;-81
2023/02/02 02:57:36;;;;;;;10.70;5.60;;;;;;;5.14;65.43;99472.31;108174;1255;60987;-81
2023/02/02 03:00:30;;;;;;;13.00;6.70;;;;;;;5.11;65.41;99475.08;107976;1259;75099;-80
2023/02/02 03:03:06;;;;;;;11.70;5.70;;;;;;;5.04;65.36;99472.71;108073;1257;73195;-79
2023/02/02 03:05:53;;;;;;;13.10;6.30;;;;;;;4.96;65.46;99472.04;108113;1254;73128;-82
2023/02/02 03:08:26;;;;;;;12.10;6.20;;;;;;;4.91;65.47;99471.19;108051;1258;60430;-81
2023/02/02 03:10:55;;;;;;;11.60;6.20;;;;;;;4.89;65.53;99471.42;108031;1255;62196;-81
2023/02/02 03:13:24;;;;;;;13.20;6.00;;;;;;;4.86;65.57;99471.22;108095;1254;72593;-81
2023/02/02 03:15:53;;;;;;;16.10;6.20;;;;;;;4.86;65.63;99472.38;108130;1255;73361;-81
2023/02/02 03:18:22;;;;;;;15.40;6.90;;;;;;;4.87;65.79;99471.78;108055;1257;72016;-81
2023/02/02 03:20:50;;;;;;;11.50;6.40;;;;;;;4.88;65.84;99473.79;108044;1254;60319;-81
2023/02/02 03:23:19;;;;;;;13.10;6.50;;;;;;;4.89;65.80;99470.48;107990;1256;60283;-81
2023/02/02 03:25:47;;;;;;;11.90;6.00;;;;;;;4.93;65.85;99470.35;108069;1254;73491;-81
2023/02/02 03:28:16;;;;;;;12.70;6.40;;;;;;;4.96;65.84;99471.71;108060;1254;72417;-80
2023/02/02 03:30:44;;;;;;;11.20;6.20;;;;;;;5.01;65.84;99478.66;108055;1259;72368;-82
2023/02/02 03:33:13;;;;;;;12.90;6.30;;;;;;;5.03;65.75;99477.03;108077;1257;61960;-82
2023/02/02 03:35:42;;;;;;;10.90;5.70;;;;;;;5.07;65.74;99476.67;108159;1254;61391;-80
2023/02/02 03:38:11;;;;;;;13.50;6.30;;;;;;;5.10;65.59;99478.11;108141;1255;73749;-82
2023/02/02 03:40:40;;;;;;;12.20;6.50;;;;;;;5.10;65.60;99480.91;108094;1254;73039;-80
2023/02/02 03:43:08;;;;;;;13.90;6.30;;;;;;;5.11;65.45;99481.15;108192;1254;73019;-82
2023/02/02 03:45:39;;;;;;;16.00;6.60;;;;;;;5.10;65.38;99485.10;108066;1260;61607;-81
2023/02/02 03:48:08;;;;;;;10.80;6.40;;;;;;;5.10;65.28;99487.39;108110;1254;60482;-82
2023/02/02 03:50:36;;;;;;;12.70;6.10;;;;;;;5.09;65.23;99485.25;108095;1257;74062;-81
2023/02/02 03:53:05;;;;;;;11.90;6.00;;;;;;;5.07;65.29;99484.23;108072;1258;73865;-82
2023/02/02 03:55:34;;;;;;;13.00;6.50;;;;;;;5.06;65.35;99487.71;108092;1255;71667;-81
2023/02/02 03:58:03;;;;;;;13.00;5.80;;;;;;;5.06;65.34;99489.56;108042;1259;61408;-81
2023/02/02 04:00:31;;;;;;;11.80;6.00;;;;;;;5.06;65.41;99492.85;108172;1254;61629;-81
2023/02/02 04:02:59;;;;;;;12.50;6.80;;;;;;;5.07;65.43;99487.84;108010;1257;75138;-80
2023/02/02 04:05:29;;;;;;;14.20;6.50;;;;;;;5.07;65.44;99495.99;108131;1254;73640;-81
2023/02/02 04:07:57;;;;;;;11.70;6.20;;;;;;;5.05;65.29;99493.84;108050;1257;73055;-81
2023/02/02 04:10:25;;;;;;;13.80;6.40;;;;;;;5.05;65.41;99497.97;108137;1257;61149;-81
2023/02/02 04:12:53;;;;;;;11.40;6.00;;;;;;;5.08;65.50;99496.63;108134;1257;60456;-81
2023/02/02 04:15:23;;;;;;;13.40;6.40;;;;;;;5.12;65.44;99497.32;108134;1254;73100;-81
2023/02/02 04:17:52;;;;;;;11.40;5.50;;;;;;;5.15;65.37;99495.50;108141;1254;73724;-80
2023/02/02 04:20:20;;;;;;;12.90;5.80;;;;;;;5.16;65.24;99495.92;108127;1258;70448;-81
2023/02/02 04:22:48;;;;;;;13.40;6.70;;;;;;;5.15;65.26;99494.70;108181;1257;61093;-81
2023/02/02 04:25:17;;;;;;;13.70;6.40;;;;;;;5.14;65.25;99495.65;108172;1254;60610;-83
2023/02/02 04:27:46;;;;;;;11.20;5.90;;;;;;;5.16;65.22;99499.27;108135;1254;74227;-79
2023/02/02 04:30:15;;;;;;;12.10;6.10;;;;;;;5.16;65.17;99498.89;108031;1257;72783;-80
2023/02/02 04:32:43;;;;;;;12.70;5.80;;;;;;;5.18;65.16;99498.40;108113;1255;72730;-80
2023/02/02 04:35:11;;;;;;;9.00;5.20;;;;;;;5.20;65.17;99498.63;108072;1254;61206;-81
2023/02/02 04:37:39;;;;;;;9.50;5.20;;;;;;;5.20;65.05;99496.35;108075;1254;60397;-81
2023/02/02 04:40:09;;;;;;;13.00;5.40;;;;;;;5.18;65.05;99498.27;108052;1258;75125;-81
2023/02/02 04:42:37;;;;;;;11.00;5.50;;;;;;;5.14;65.02;99497.70;108104;1258;72782;-81
2023/02/02 04:45:07;;;;;;;10.30;5.40;;;;;;;5.08;65.02;99495.47;108162;1257;72969;-83
2023/02/02 04:47:35;;;;;;;12.00;6.00;;;;;;;5.01;65.11;99498.92;108090;1257;60205;-80
2023/02/02 04:50:05;;;;;;;11.20;5.60;;;;;;;4.94;65.21;99503.06;108113;1254;61300;-83
2023/02/02 04:52:34;;;;;;;11.20;5.30;;;;;;;4.91;65.30;99504.79;108083;1255;72868;-81
2023/02/02 04:55:03;;;;;;;10.70;5.30;;;;;;;4.86;65.39;99509.86;108167;1254;74122;-81
2023/02/02 04:57:32;;;;;;;12.70;5.60;;;;;;;4.86;65.44;99504.35;108127;1258;71885;-81
2023/02/02 05:00:00;;;;;;;10.80;5.30;;;;;;;4.87;65.46;99507.80;108011;1257;61414;-81
2023/02/02 05:02:29;;;;;;;10.90;5.20;;;;;;;4.89;65.50;99516.66;108023;1255;60264;-82
2023/02/02 05:04:57;;;;;;;9.40;5.10;;;;;;;4.89;65.57;99517.55;108051;1260;74120;-81
2023/02/02 05:07:28;;;;;;;10.40;5.40;;;;;;;4.90;65.56;99518.48;108127;1254;73201;-81
2023/02/02 05:09:56;;;;;;;12.40;5.90;;;;;;;4.92;65.61;99520.51;107936;1257;72013;-80
2023/02/02 05:12:28;;;;;;;;;;;;;;;4.94;65.60;99521.39;108037;1254;61891;-80
2023/02/02 05:14:59;;;;;;;10.40;5.30;;;;;;;4.94;65.46;99518.52;108072;1257;60295;-81
2023/02/02 05:17:28;;;;;;;11.60;6.10;;;;;;;4.94;65.49;99523.14;108078;1259;74908;-80
2023/02/02 05:19:56;;;;;;;10.60;4.90;;;;;;;4.94;65.47;99521.34;108046;1257;73793;-81
2023/02/02 05:22:25;;;;;;;11.70;5.10;;;;;;;4.92;65.40;99525.59;108082;1260;71743;-80
2023/02/02 05:24:54;;;;;;;12.90;5.50;;;;;;;4.90;65.37;99525.77;108045;1254;60435;-81
2023/02/02 05:27:22;;;;;;;11.50;5.50;;;;;;;4.87;65.30;99530.56;108091;1255;60267;-81
2023/02/02 05:29:52;;;;;;;13.80;5.70;;;;;;;4.86;65.43;99530.60;108052;1254;74891;-82
2023/02/02 05:32:20;;;;;;;13.60;5.80;;;;;;;4.85;65.34;99536.35;108093;1258;73109;-81
2023/02/02 05:34:51;;;;;;;11.70;5.80;;;;;;;4.83;65.42;99539.02;108058;1257;73984;-80
2023/02/02 05:37:20;;;;;;;12.40;5.50;;;;;;;4.81;65.46;99542.05;108072;1254;60423;-81
2023/02/02 05:39:49;;;;;;;12.00;5.90;;;;;;;4.80;65.51;99542.58;108065;1254;59743;-81
2023/02/02 05:42:18;;;;;;;13.50;6.00;;;;;;;4.81;65.46;99543.23;108007;1254;72902;-80
2023/02/02 05:44:46;;;;;;;11.70;5.10;;;;;;;4.80;65.51;99545.63;108083;1254;73039;-81
2023/02/02 05:47:14;;;;;;;12.40;5.80;;;;;;;4.79;65.44;99548.54;107985;1257;72608;-81
2023/02/02 05:49:43;;;;;;;13.10;6.30;;;;;;;4.76;65.46;99548.13;108139;1254;60332;-81
2023/02/02 05:52:14;;;;;;;11.50;6.10;;;;;;;4.75;65.53;99550.76;108112;1254;59058;-80
2023/02/02 05:54:43;;;;;;;;;;;;;;;4.75;65.52;99553.89;108039;1254;74067;-81
2023/02/02 06:10:50;;;;;;;12.30;6.00;;;;;;;4.72;65.71;99562.06;105479;1285;612563;-76
2023/02/02 06:13:19;;;;;;;11.10;6.10;;;;;;;5.14;64.85;99564.31;107107;1268;169598;-78
2023/02/02 06:15:49;;;;;;;10.10;5.80;;;;;;;5.13;64.79;99564.29;107295;1267;61527;-77
2023/02/02 06:18:17;;;;;;;13.10;6.30;;;;;;;5.10;64.71;99565.64;107327;1269;71842;-76
2023/02/02 06:20:46;;;;;;;12.40;6.30;;;;;;;5.06;64.76;99568.70;107258;1268;71190;-77
2023/02/02 06:23:15;;;;;;;10.70;5.50;;;;;;;5.05;64.75;99572.23;107352;1270;73228;-75
2023/02/02 06:25:43;;;;;;;9.00;5.50;;;;;;;5.06;64.79;99576.11;107302;1268;60356;-77
2023/02/02 06:28:12;;;;;;;9.40;5.70;;;;;;;5.04;64.64;99577.39;107450;1265;60416;-77
2023/02/02 06:30:40;;;;;;;10.00;5.80;;;;;;;5.01;64.72;99578.70;107295;1267;71207;-78
2023/02/02 06:33:11;;;;;;;9.70;5.60;;;;;;;5.01;64.71;99577.75;107237;1269;74073;-78
2023/02/02 06:35:39;;;;;;;9.90;5.70;;;;;;;5.01;64.55;99577.69;107924;1260;71700;-77
2023/02/02 06:38:10;;;;;;;10.70;5.90;;;;;;;5.00;64.59;99578.51;108096;1254;60697;-79
2023/02/02 06:40:38;;;;;;;12.30;5.90;;;;;;;4.99;64.51;99576.91;107992;1256;60594;-77
2023/02/02 06:43:07;;;;;;;10.40;5.60;;;;;;;5.00;64.48;99580.31;108127;1254;71899;-77
2023/02/02 06:45:39;;;;;;;11.10;5.60;;;;;;;5.02;64.56;99586.06;108025;1256;72103;-77
2023/02/02 06:48:09;;;;;;;10.30;6.00;;;;;;;5.07;64.55;99586.30;108046;1257;72243;-77
2023/02/02 06:50:38;;;;;;;11.40;5.70;;;;;;;5.16;64.49;99588.31;108029;1256;59556;-77
2023/02/02 06:53:07;;;;;;;10.40;5.90;;;;;;;5.21;64.29;99591.08;107987;1256;60153;-76
2023/02/02 06:55:35;;;;;;;12.00;6.30;;;;;;;5.23;64.11;99593.13;107956;1256;74234;-78
2023/02/02 06:58:04;;;;;;;11.50;6.70;;;;;;;5.31;64.00;99593.55;108026;1259;72775;-77
2023/02/02 07:00:35;;;;;;;11.00;6.10;;;;;;;5.35;63.78;99594.59;108119;1254;71528;-76
2023/02/02 07:03:04;;;;;;;9.30;6.30;;;;;;;5.36;63.66;99593.55;108081;1256;59959;-76
2023/02/02 07:05:35;;;;;;;12.30;6.40;;;;;;;5.41;63.37;99588.46;107913;1257;59487;-77
2023/02/02 07:08:03;;;;;;;9.60;6.10;;;;;;;5.36;63.22;99593.86;108026;1259;73568;-76
2023/02/02 07:10:31;;;;;;;14.40;6.10;;;;;;;5.34;63.11;99597.29;107930;1256;73868;-76
2023/02/02 07:13:20;;;;;;;9.50;6.40;;;;;;;5.35;63.06;99598.94;107921;1257;73501;-77
2023/02/02 07:15:50;;;;;;;12.20;6.20;;;;;;;5.36;63.00;99590.80;108015;1256;60464;-78
2023/02/02 07:18:21;;;;;;;11.10;6.50;;;;;;;5.37;62.85;99597.91;107907;1256;60240;-76
2023/02/02 07:20:49;;;;;;;10.60;6.30;;;;;;;5.44;62.71;99598.62;107795;1256;71377;-77
2023/02/02 07:23:18;;;;;;;9.90;5.90;;;;;;;5.57;62.50;99594.96;107998;1258;73623;-77
2023/02/02 07:25:46;;;;;;;11.40;6.20;;;;;;;5.54;62.61;99597.95;108078;1258;72054;-77
2023/02/02 07:28:15;;;;;;;9.80;5.50;;;;;;;5.59;62.81;99592.55;108100;1257;59755;-76
2023/02/02 07:30:44;;;;;;;9.30;5.80;;;;;;;5.66;62.64;99584.26;108022;1260;60625;-77
2023/02/02 07:33:12;;;;;;;11.10;6.50;;;;;;;5.71;62.32;99585.10;108026;1258;72469;-76
2023/02/02 07:35:41;;;;;;;9.80;6.20;;;;;;;5.71;62.21;99589.02;107944;1256;70893;-76
2023/02/02 07:38:09;;;;;;;11.90;6.50;;;;;;;5.74;62.11;99592.51;107996;1256;72160;-78
2023/02/02 07:40:39;;;;;;;9.40;6.40;;;;;;;5.77;62.05;99599.59;108003;1257;60246;-78
2023/02/02 07:43:08;;;;;;;10.00;6.00;;;;;;;5.81;61.85;99605.09;107843;1257;60749;-77
2023/02/02 07:45:42;;;;;;;9.80;5.80;;;;;;;5.79;61.60;99599.87;108014;1256;73940;-77
2023/02/02 07:48:10;;;;;;;10.70;6.40;;;;;;;5.78;61.76;99608.81;107947;1260;71649;-77
2023/02/02 07:50:38;;;;;;;11.10;6.70;;;;;;;5.82;61.68;99613.01;108014;1260;71872;-78
2023/02/02 07:53:07;;;;;;;11.00;6.50;;;;;;;5.84;61.60;99609.61;108028;1260;60231;-77
2023/02/02 07:55:35;;;;;;;9.50;5.70;;;;;;;5.93;61.69;99609.00;108021;1257;61626;-76
2023/02/02 07:58:06;;;;;;;10.50;6.50;;;;;;;6.02;61.50;99611.27;108024;1260;73075;-76
2023/02/02 08:00:34;;;;;;;12.40;6.40;;;;;;;6.11;61.40;99616.35;108047;1260;73719;-77
2023/02/02 08:03:03;;;;;;;8.40;5.80;;;;;;;6.19;61.29;99616.11;108037;1258;71749;-78
2023/02/02 08:05:33;;;;;;;8.30;5.70;;;;;;;6.28;61.08;99615.98;107903;1261;62186;-77
2023/02/02 08:08:02;;;;;;;8.90;6.30;;;;;;;6.37;60.93;99614.63;107969;1260;60684;-76
2023/02/02 08:10:30;;;;;;;10.80;6.60;;;;;;;6.45;60.67;99614.27;107977;1259;73521;-76
2023/02/02 08:12:58;;;;;;;8.90;5.70;;;;;;;6.52;60.42;99616.02;107991;1256;72220;-76
2023/02/02 08:15:26;;;;;;;10.70;6.00;;;;;;;6.56;60.48;99616.80;107994;1256;73139;-77
2023/02/02 08:17:55;;;;;;;9.80;5.90;;;;;;;6.67;60.45;99618.26;108035;1254;59621;-75
2023/02/02 08:20:23;;;;;;;9.90;6.10;;;;;;;6.76;60.20;99621.63;108099;1259;59531;-76
2023/02/02 08:22:52;;;;;;;10.40;5.70;;;;;;;6.82;59.82;99625.02;108034;1260;73088;-76
2023/02/02 08:25:20;;;;;;;11.10;6.20;;;;;;;6.85;59.47;99621.79;108055;1257;72300;-77
2023/02/02 08:27:52;;;;;;;9.60;5.90;;;;;;;6.82;59.34;99619.70;108010;1258;72578;-77
2023/02/02 08:30:20;;;;;;;8.10;6.30;;;;;;;6.89;59.49;99623.78;107929;1257;61302;-75
2023/02/02 08:32:49;;;;;;;9.00;6.40;;;;;;;6.97;59.20;99623.09;107767;1257;60290;-76
2023/02/02 08:35:18;;;;;;;9.90;6.20;;;;;;;7.03;58.82;99622.28;107824;1258;73365;-78
2023/02/02 08:37:48;;;;;;;9.90;6.30;;;;;;;7.05;58.65;99621.81;107901;1257;72402;-76
2023/02/02 08:40:16;;;;;;;9.20;6.10;;;;;;;7.10;58.62;99623.80;107918;1261;71740;-78
2023/02/02 08:42:46;;;;;;;8.00;5.90;;;;;;;7.18;58.60;99621.36;107886;1257;61085;-76
2023/02/02 08:45:14;;;;;;;9.30;6.30;;;;;;;7.31;58.56;99621.17;107890;1261;60649;-76
2023/02/02 08:48:03;;;;;;;11.30;6.90;;;;;;;7.44;58.02;99616.45;107870;1257;72171;-75
2023/02/02 08:50:39;;;;;;;10.40;7.30;;;;;;;7.42;57.37;99616.61;107954;1257;72972;-76
2023/02/02 08:53:08;;;;;;;9.90;7.50;;;;;;;7.36;57.48;99613.86;107862;1258;72187;-76
2023/02/02 08:55:36;;;;;;;10.00;6.80;;;;;;;7.35;57.47;99610.66;107993;1257;60069;-75
2023/02/02 08:58:06;;;;;;;9.10;6.30;;;;;;;7.30;57.02;99617.98;108020;1255;60362;-76
2023/02/02 09:00:34;;;;;;;9.40;6.60;;;;;;;7.19;57.15;99620.46;107984;1258;73003;-78
2023/02/02 09:03:03;;;;;;;12.00;7.00;;;;;;;7.17;57.49;99623.91;108047;1257;72326;-77
2023/02/02 09:05:31;;;;;;;9.50;7.00;;;;;;;7.24;57.54;99627.30;108046;1260;70533;-76
2023/02/02 09:07:59;;;;;;;9.30;6.60;;;;;;;7.28;57.39;99619.67;108048;1257;59609;-77
2023/02/02 09:10:30;;;;;;;9.40;6.70;;;;;;;7.30;57.35;99623.02;108045;1258;61574;-77
2023/02/02 09:12:59;;;;;;;9.80;6.10;;;;;;;7.36;57.38;99617.89;108026;1257;74280;-76
2023/02/02 09:15:27;;;;;;;10.30;6.80;;;;;;;7.35;57.06;99612.95;108026;1257;73576;-76
2023/02/02 09:17:57;;;;;;;9.60;6.30;;;;;;;7.34;57.17;99614.53;108060;1256;72971;-77
2023/02/02 09:20:25;;;;;;;9.60;6.70;;;;;;;7.34;57.06;99616.27;107880;1257;62170;-76
2023/02/02 09:22:56;;;;;;;9.70;6.50;;;;;;;7.34;57.04;99615.86;108013;1257;59553;-76
2023/02/02 09:25:26;;;;;;;10.90;6.50;;;;;;;7.37;57.19;99618.17;108072;1257;72461;-77
2023/02/02 09:27:55;;;;;;;9.10;6.20;;;;;;;7.33;57.10;99615.39;108054;1260;72088;-75
2023/02/02 09:30:23;;;;;;;12.30;7.50;;;;;;;7.23;57.24;99619.00;107992;1256;73676;-75
2023/02/02 09:32:51;;;;;;;8.90;6.50;;;;;;;7.22;57.29;99613.95;107968;1260;62363;-76
2023/02/02 09:35:20;;;;;;;11.30;6.50;;;;;;;7.25;57.36;99615.02;108052;1257;59684;-77
2023/02/02 09:37:48;;;;;;;8.80;6.50;;;;;;;7.31;57.40;99616.08;108004;1257;73990;-76
2023/02/02 09:40:17;;;;;;;9.30;6.10;;;;;;;7.32;57.29;99615.48;108005;1257;71894;-77
2023/02/02 09:43:32;;;;;;;9.70;6.60;;;;;;;7.33;57.31;99616.55;107838;1257;73862;-77
2023/02/02 09:46:13;;;;;;;11.40;6.20;;;;;;;7.34;57.35;99616.77;108010;1257;59542;-76
2023/02/02 09:48:52;;;;;;;9.20;6.30;;;;;;;7.36;57.41;99616.30;107862;1257;59053;-76
2023/02/02 09:51:21;;;;;;;8.60;6.60;;;;;;;7.42;57.47;99614.48;107894;1257;72217;-76
2023/02/02 09:53:52;;;;;;;8.60;6.40;;;;;;;7.46;57.40;99610.67;107876;1257;74351;-76
2023/02/02 09:56:31;;;;;;;8.40;5.90;;;;;;;7.47;57.30;99609.61;108001;1258;72057;-76
2023/02/02 09:59:00;;;;;;;8.30;6.00;;;;;;;7.39;57.25;99612.98;108031;1257;59638;-76
2023/02/02 10:01:47;;;;;;;7.60;5.90;;;;;;;7.27;57.39;99611.80;107783;1256;60581;-77
2023/02/02 10:04:17;;;;;;;7.40;5.00;;;;;;;7.21;57.78;99615.80;107831;1257;72706;-77
2023/02/02 10:06:47;;;;;;;6.30;4.40;;;;;;;7.15;58.13;99612.37;108021;1257;73486;-76
2023/02/02 10:09:56;;;;;;;7.60;4.80;;;;;;;7.11;58.48;99615.80;107979;1257;73525;-76
2023/02/02 10:12:46;;;;;;;6.40;4.60;;;;;;;7.03;58.89;99617.29;107979;1257;61877;-77
2023/02/02 10:15:36;;;;;;;6.60;4.60;;;;;;;7.01;59.21;99615.15;107989;1257;61333;-77
2023/02/02 10:18:32;;;;;;;6.80;4.40;;;;;;;7.00;59.77;99613.67;107997;1258;72952;-77
2023/02/02 10:21:23;;;;;;;6.90;4.80;;;;;;;7.12;60.24;99618.04;108029;1256;72164;-77
2023/02/02 10:23:53;;;;;;;9.00;5.60;;;;;;;7.24;60.32;99619.11;108000;1256;73793;-75
2023/02/02 10:26:27;;;;;;;7.80;5.20;;;;;;;7.37;60.06;99617.15;107992;1257;60420;-76
2023/02/02 10:28:58;;;;;;;7.30;4.50;;;;;;;7.38;60.10;99619.45;108018;1257;60426;-75
2023/02/02 10:31:45;;;;;;;7.30;5.60;;;;;;;7.34;60.04;99626.17;107997;1260;75357;-76
2023/02/02 10:34:30;;;;;;;8.90;5.70;;;;;;;7.20;60.09;99630.23;108035;1256;73215;-76
2023/02/02 10:37:33;;;;;;;7.70;6.00;;;;;;;7.10;60.36;99634.38;107998;1257;71924;-77
2023/02/02 10:40:16;;;;;;;11.00;6.70;;;;;;;6.99;60.61;99635.37;108004;1257;62693;-76
2023/02/02 10:46:04;;;;;;;9.20;6.90;;;;;;;6.92;60.97;99631.77;107997;1257;73838;-77
2023/02/02 10:48:35;;;;;;;9.40;6.70;;;;;;;6.89;61.17;99631.48;107777;1257;71278;-77
2023/02/02 10:51:22;;;;;;;10.40;7.30;;;;;;;6.89;61.21;99628.94;107863;1261;73934;-77
2023/02/02 10:53:54;;;;;;;9.30;6.70;;;;;;;6.90;61.34;99622.77;108031;1256;60461;-77
2023/02/02 10:56:44;;;;;;;10.00;7.10;;;;;;;6.95;61.31;99620.64;107854;1260;60312;-78
2023/02/02 10:59:20;;;;;;;10.40;7.70;;;;;;;6.96;61.26;99619.32;107841;1257;75068;-77
2023/02/02 11:01:49;;;;;;;8.20;6.50;;;;;;;6.97;60.99;99618.15;107997;1260;73200;-76
2023/02/02 11:07:08;;;;;;;7.80;6.10;;;;;;;7.04;60.86;99621.55;107819;1256;60569;-76
2023/02/02 11:09:39;;;;;;;9.10;6.30;;;;;;;7.19;60.63;99621.15;107757;1257;60564;-76
2023/02/02 11:12:23;;;;;;;8.80;6.20;;;;;;;7.35;60.48;99617.73;108025;1257;73761;-76
2023/02/02 11:14:56;;;;;;;8.80;6.70;;;;;;;7.54;60.33;99617.61;108036;1257;72765;-76
2023/02/02 11:17:26;;;;;;;10.00;6.70;;;;;;;7.68;59.92;99617.55;107812;1257;73998;-78
2023/02/02 11:19:55;;;;;;;9.50;7.00;;;;;;;7.77;59.64;99620.77;108005;1257;62194;-78
2023/02/02 11:22:29;;;;;;;9.40;6.80;;;;;;;7.87;59.30;99622.19;107839;1257;59702;-76
2023/02/02 11:25:06;;;;;;;9.00;7.00;;;;;;;7.83;58.63;99625.95;108004;1257;71925;-77
2023/02/02 11:27:39;;;;;;;10.20;7.00;;;;;;;7.80;58.53;99624.02;107988;1257;72861;-78
2023/02/02 11:30:30;;;;;;;8.60;7.20;;;;;;;7.78;58.47;99620.83;108000;1260;72985;-76
2023/02/02 11:32:59;;;;;;;8.40;6.90;;;;;;;7.83;58.62;99619.08;107859;1257;60279;-77
2023/02/02 11:35:30;;;;;;;9.30;7.40;;;;;;;7.92;58.68;99621.09;108006;1256;60407;-77
2023/02/02 11:38:07;;;;;;;9.80;7.30;;;;;;;7.99;58.47;99619.83;108003;1257;71946;-76
2023/02/02 11:40:37;;;;;;;9.20;6.90;;;;;;;7.95;58.13;99616.35;107999;1257;73391;-76
2023/02/02 11:43:17;;;;;;;8.60;6.90;;;;;;;7.91;57.64;99617.46;108021;1257;73604;-77
2023/02/02 11:45:50;;;;;;;8.80;7.20;;;;;;;7.90;57.76;99612.98;108040;1256;60595;-77
2023/02/02 11:48:20;;;;;;;9.80;7.20;;;;;;;7.94;57.58;99610.66;107837;1256;61168;-79
2023/02/02 11:50:50;;;;;;;9.30;6.90;;;;;;;7.96;57.41;99606.95;108029;1257;73274;-77
2023/02/02 11:53:30;;;;;;;9.90;6.90;;;;;;;8.03;56.94;99606.85;108022;1256;72729;-76
2023/02/02 11:56:04;;;;;;;8.80;6.90;;;;;;;8.10;56.54;99612.50;108002;1256;73667;-76
2023/02/02 11:58:49;;;;;;;9.70;6.80;;;;;;;8.23;56.73;99609.86;107983;1256;60325;-76
2023/02/02 12:01:30;;;;;;;8.20;6.20;;;;;;;8.47;56.33;99610.60;108022;1257;60441;-77
2023/02/02 12:04:00;;;;;;;8.00;6.20;;;;;;;8.57;55.18;99608.90;108019;1257;75134;-77
2023/02/02 12:06:32;;;;;;;8.00;6.30;;;;;;;8.61;54.96;99615.77;108052;1256;74271;-76
2023/02/02 12:09:03;;;;;;;8.00;6.20;;;;;;;8.63;54.85;99610.55;107957;1257;72187;-76
2023/02/02 12:11:38;;;;;;;8.30;6.20;;;;;;;8.68;54.93;99609.60;107771;1256;60428;-76
2023/02/02 12:14:12;;;;;;;7.50;5.50;;;;;;;8.72;54.74;99608.52;107981;1256;60419;-76
2023/02/02 12:17:02;;;;;;;9.50;6.40;;;;;;;8.63;54.59;99610.34;107990;1256;72979;-76
2023/02/02 12:19:50;;;;;;;8.60;5.90;;;;;;;8.49;54.74;99613.33;108000;1257;72035;-76
2023/02/02 12:22:25;;;;;;;8.70;6.00;;;;;;;8.46;55.03;99613.27;107991;1256;71882;-76